Time;durP1;ratioP1;P1;durP2;ratioP2;P2;SDS_P1;SDS_P2;PMS_P1;PMS_P2;Temp;Humidity;BMP_temperature;BMP_pressure;BME280_temperature;BME280_humidity;BME280_pressure;Samples;Min_cycle;Max_cycle;Signal;HPM_P1;HPM_P2
2021/03/02 00:00:22;;;;;;;;;;;;;;;1.24;100.00;97062.94;1037058;28;20437;-64
2021/03/02 00:00:53;;;;;;;;;;;;;;;1.23;100.00;97063.94;1037208;28;19944;-66
2021/03/02 00:01:24;;;;;;;;;;;;;;;1.19;100.00;97066.06;1034877;28;19917;-64
2021/03/02 00:01:54;;;;;;;;;;;;;;;1.15;100.00;97063.00;1036850;28;19965;-63
2021/03/02 00:02:24;;;;;;;;;;;;;;;1.15;100.00;97060.44;1032277;28;19906;-63
2021/03/02 00:02:55;;;;;;;;;;;;;;;1.15;100.00;97068.19;1029990;28;20241;-62
2021/03/02 00:03:25;;;;;;;;;;;;;;;1.12;100.00;97067.72;1034084;28;19913;-63
2021/03/02 00:03:55;;;;;;;;;;;;;;;1.13;100.00;97064.16;1035280;28;19910;-63
2021/03/02 00:04:26;;;;;;;;;;;;;;;1.07;100.00;97065.63;1031208;28;19909;-63
2021/03/02 00:04:57;;;;;;;;;;;;;;;1.05;100.00;97067.59;1036300;28;19909;-64
2021/03/02 00:05:27;;;;;;;;;;;;;;;1.01;100.00;97061.16;1035364;28;19912;-64
2021/03/02 00:05:57;;;;;;;;;;;;;;;1.02;100.00;97061.94;1031152;28;20395;-63
2021/03/02 00:06:28;;;;;;;;;;;;;;;1.00;100.00;97062.09;1036545;28;19912;-64
2021/03/02 00:06:58;;;;;;;;;;;;;;;1.00;100.00;97062.09;1038372;28;19913;-63
2021/03/02 00:07:28;;;;;;;;;;;;;;;0.97;100.00;97065.03;1035096;28;20383;-63
2021/03/02 00:07:59;;;;;;;;;;;;;;;0.96;100.00;97067.78;1035583;28;20398;-62
2021/03/02 00:08:29;;;;;;;;;;;;;;;0.92;100.00;97062.97;1039107;28;19909;-63
2021/03/02 00:09:00;;;;;;;;;;;;;;;0.93;100.00;97072.31;1031541;28;19921;-62
2021/03/02 00:09:30;;;;;;;;;;;;;;;0.92;100.00;97067.31;1035958;28;19932;-63
2021/03/02 00:10:00;;;;;;;;;;;;;;;0.91;100.00;97065.72;1038600;28;19909;-63
2021/03/02 00:10:30;;;;;;;;;;;;;;;0.90;100.00;97064.91;1031721;28;19941;-63
2021/03/02 00:11:01;;;;;;;;;;;;;;;0.89;100.00;97062.50;1031573;28;19906;-63
2021/03/02 00:11:31;;;;;;;;;;;;;;;0.88;100.00;97066.88;1032683;28;19909;-63
2021/03/02 00:12:01;;;;;;;;;;;;;;;0.96;100.00;97067.78;1039558;28;19917;-63
2021/03/02 00:12:32;;;;;;;;;;;;;;;0.94;100.00;97065.41;1043797;28;19915;-64
2021/03/02 00:13:02;;;;;;;;;;;;;;;0.92;100.00;97065.53;1039361;28;19906;-64
2021/03/02 00:13:32;;;;;;;;;;;;;;;0.88;100.00;97072.03;1037190;28;19988;-64
2021/03/02 00:14:03;;;;;;;;;;;;;;;0.86;100.00;97063.63;1039438;28;19927;-63
2021/03/02 00:14:34;;;;;;;;;;;;;;;0.83;100.00;97073.50;1035280;28;20351;-65
2021/03/02 00:15:05;;;;;;;;;;;;;;;0.81;100.00;97065.13;1037457;28;20339;-63
2021/03/02 00:15:35;;;;;;;;;;;;;;;0.80;100.00;97063.50;1039373;28;19909;-63
2021/03/02 00:16:06;;;;;;;;;;;;;;;0.78;100.00;97066.25;1043708;28;19905;-63
2021/03/02 00:16:37;;;;;;;;;;;;;;;0.77;100.00;97069.00;1040571;28;19954;-63
2021/03/02 00:17:19;;;;;;;;;;;;;;;0.74;100.00;97066.75;1035221;28;19963;-63
2021/03/02 00:17:52;;;;;;;;;;;;;;;0.72;100.00;97066.13;1035054;28;19932;-63
2021/03/02 00:18:23;;;;;;;;;;;;;;;0.71;100.00;97070.50;1036953;28;20703;-63
2021/03/02 00:19:00;;;;;;;;;;;;;;;0.68;100.00;97071.63;1038095;28;20326;-63
2021/03/02 00:19:38;;;;;;;;;;;;;;;0.70;100.00;97069.69;1035079;28;19916;-63
2021/03/02 00:20:09;;;;;;;;;;;;;;;0.69;100.00;97077.59;1031889;28;19944;-63
2021/03/02 00:20:39;;;;;;;;;;;;;;;0.69;100.00;97067.25;1035006;28;19953;-63
2021/03/02 00:21:11;;;;;;;;;;;;;;;0.69;100.00;97072.44;1028298;28;19906;-63
2021/03/02 00:21:44;;;;;;;;;;;;;;;0.68;100.00;97066.47;1026922;28;20327;-63
2021/03/02 00:22:25;;;;;;;;;;;;;;;0.66;100.00;97065.00;1029515;28;20327;-63
2021/03/02 00:23:01;;;;;;;;;;;;;;;0.64;100.00;97062.59;1029037;28;20079;-65
2021/03/02 00:23:34;;;;;;;;;;;;;;;0.65;100.00;97066.00;1035968;28;20020;-63
2021/03/02 00:24:05;;;;;;;;;;;;;;;0.61;100.00;97065.53;1037533;28;19987;-63
2021/03/02 00:24:35;;;;;;;;;;;;;;;0.58;100.00;97065.84;1036630;28;20399;-62
2021/03/02 00:25:06;;;;;;;;;;;;;;;0.58;100.00;97065.84;1039417;28;20391;-62
2021/03/02 00:25:37;;;;;;;;;;;;;;;0.55;100.00;97063.59;1037969;28;19909;-63
2021/03/02 00:26:07;;;;;;;;;;;;;;;0.58;100.00;97065.84;1039554;28;19909;-63
2021/03/02 00:26:40;;;;;;;;;;;;;;;0.56;100.00;97067.78;1043613;28;20448;-63
2021/03/02 00:27:11;;;;;;;;;;;;;;;0.63;100.00;97062.75;1039180;28;20267;-63
2021/03/02 00:27:42;;;;;;;;;;;;;;;0.58;100.00;97065.84;1031429;28;19913;-63
2021/03/02 00:28:12;;;;;;;;;;;;;;;0.62;100.00;97066.31;1031059;28;20375;-63
2021/03/02 00:28:42;;;;;;;;;;;;;;;0.63;100.00;97073.09;1026871;28;20427;-62
2021/03/02 00:29:12;;;;;;;;;;;;;;;0.55;100.00;97061.00;1026890;28;20545;-63
2021/03/02 00:29:43;;;;;;;;;;;;;;;0.55;100.00;97061.00;1031182;28;19910;-63
2021/03/02 00:30:14;;;;;;;;;;;;;;;0.55;100.00;97068.75;1030925;28;19918;-64
2021/03/02 00:30:45;;;;;;;;;;;;;;;0.53;100.00;97060.38;1031298;28;19973;-63
2021/03/02 00:31:15;;;;;;;;;;;;;;;0.51;100.00;97064.91;1031259;28;20442;-63
2021/03/02 00:31:45;;;;;;;;;;;;;;;0.50;100.00;97070.22;1031548;28;19929;-62
2021/03/02 00:32:19;;;;;;;;;;;;;;;0.54;100.00;97063.75;1030773;28;19918;-63
2021/03/02 00:32:50;;;;;;;;;;;;;;;0.58;100.00;97077.97;1035840;28;20393;-62
2021/03/02 00:33:20;;;;;;;;;;;;;;;0.73;100.00;97070.31;1039300;28;19917;-67
2021/03/02 00:33:50;;;;;;;;;;;;;;;0.74;100.00;97072.75;1035659;28;19924;-63
2021/03/02 00:34:21;;;;;;;;;;;;;;;0.81;100.00;97060.75;1039073;28;19927;-63
2021/03/02 00:34:51;;;;;;;;;;;;;;;0.81;100.00;97062.53;1039418;28;20002;-63
2021/03/02 00:35:21;;;;;;;;;;;;;;;0.77;100.00;97072.41;1038866;28;20004;-63
2021/03/02 00:35:52;;;;;;;;;;;;;;;0.74;100.00;97066.75;1044341;28;19927;-63
2021/03/02 00:36:22;;;;;;;;;;;;;;;0.77;100.00;97075.00;1043694;28;20347;-63
2021/03/02 00:36:52;;;;;;;;;;;;;;;0.76;100.00;97069.97;1043485;28;19917;-63
2021/03/02 00:37:23;;;;;;;;;;;;;;;0.72;100.00;97063.53;1042515;28;19917;-63
2021/03/02 00:37:53;;;;;;;;;;;;;;;0.69;100.00;97073.22;1039255;28;19917;-64
2021/03/02 00:38:23;;;;;;;;;;;;;;;0.66;100.00;97073.56;1035150;28;20287;-62
2021/03/02 00:38:53;;;;;;;;;;;;;;;0.66;100.00;97067.59;1035188;28;20015;-63
2021/03/02 00:39:24;;;;;;;;;;;;;;;0.65;100.00;97071.94;1035174;28;19917;-66
2021/03/02 00:39:54;;;;;;;;;;;;;;;0.62;100.00;97072.28;1039250;28;19956;-62
2021/03/02 00:40:24;;;;;;;;;;;;;;;0.63;100.00;97071.31;1035113;28;19917;-62
2021/03/02 00:40:55;;;;;;;;;;;;;;;0.58;100.00;97068.44;1041025;28;20015;-63
2021/03/02 00:41:25;;;;;;;;;;;;;;;0.55;100.00;97066.19;1043443;28;19917;-63
2021/03/02 00:41:55;;;;;;;;;;;;;;;0.49;100.00;97064.25;1039166;28;19916;-64
2021/03/02 00:42:26;;;;;;;;;;;;;;;0.47;100.00;97063.63;1036242;28;19928;-64
2021/03/02 00:42:57;;;;;;;;;;;;;;;0.50;100.00;97067.63;1034269;28;19952;-65
2021/03/02 00:43:27;;;;;;;;;;;;;;;0.49;100.00;97068.63;1035357;28;19972;-63
2021/03/02 00:43:58;;;;;;;;;;;;;;;0.53;100.00;97073.28;1038829;28;19913;-62
2021/03/02 00:44:28;;;;;;;;;;;;;;;0.56;100.00;97062.63;1039339;28;20504;-63
2021/03/02 00:44:58;;;;;;;;;;;;;;;0.54;100.00;97071.50;1035131;28;19917;-64
2021/03/02 00:45:28;;;;;;;;;;;;;;;0.55;100.00;97063.59;1039261;28;19962;-63
2021/03/02 00:45:59;;;;;;;;;;;;;;;0.55;100.00;97068.75;1038824;28;19917;-63
2021/03/02 00:46:29;;;;;;;;;;;;;;;0.54;100.00;97067.16;1039373;28;20407;-63
2021/03/02 00:46:59;;;;;;;;;;;;;;;0.55;100.00;97070.53;1042801;28;19920;-62
2021/03/02 00:47:30;;;;;;;;;;;;;;;0.55;100.00;97070.53;1040821;28;20456;-65
2021/03/02 00:48:00;;;;;;;;;;;;;;;0.55;100.00;97070.53;1039122;28;19919;-64
2021/03/02 00:48:30;;;;;;;;;;;;;;;0.56;100.00;97065.19;1039283;28;19925;-64
2021/03/02 00:49:01;;;;;;;;;;;;;;;0.54;100.00;97069.75;1039107;28;20470;-62
2021/03/02 00:49:31;;;;;;;;;;;;;;;0.53;100.00;97068.09;1035409;28;20337;-63
2021/03/02 00:50:02;;;;;;;;;;;;;;;0.52;100.00;97065.72;1040398;28;19921;-64
2021/03/02 00:50:33;;;;;;;;;;;;;;;0.50;100.00;97063.28;1035280;28;20383;-64
2021/03/02 00:51:03;;;;;;;;;;;;;;;0.48;100.00;97062.66;1030874;28;19927;-63
2021/03/02 00:51:33;;;;;;;;;;;;;;;0.47;100.00;97064.44;1027005;28;19920;-62
2021/03/02 00:52:04;;;;;;;;;;;;;;;0.44;100.00;97069.13;1030583;28;20366;-63
2021/03/02 00:52:34;;;;;;;;;;;;;;;0.44;100.00;97066.53;1035142;28;20008;-63
2021/03/02 00:53:04;;;;;;;;;;;;;;;0.45;100.00;97066.38;1039169;28;19921;-63
2021/03/02 00:53:35;;;;;;;;;;;;;;;0.46;100.00;97072.31;1040624;28;20464;-63
2021/03/02 00:54:05;;;;;;;;;;;;;;;0.44;100.00;97069.13;1039313;28;19916;-64
2021/03/02 00:54:35;;;;;;;;;;;;;;;0.43;100.00;97073.47;1039142;28;19909;-63
2021/03/02 00:55:06;;;;;;;;;;;;;;;0.44;100.00;97071.72;1042844;28;19924;-64
2021/03/02 00:55:36;;;;;;;;;;;;;;;0.44;100.00;97069.13;1043331;28;20402;-64
2021/03/02 00:56:07;;;;;;;;;;;;;;;0.42;100.00;97068.47;1041586;28;19927;-63
2021/03/02 00:56:37;;;;;;;;;;;;;;;0.40;100.00;97063.50;1043464;28;19917;-63
2021/03/02 00:57:07;;;;;;;;;;;;;;;0.41;100.00;97069.44;1040366;28;19932;-64
2021/03/02 00:57:38;;;;;;;;;;;;;;;0.44;100.00;97069.13;1038034;28;19917;-62
2021/03/02 00:58:08;;;;;;;;;;;;;;;0.48;100.00;97072.97;1036185;28;19957;-63
2021/03/02 00:58:39;;;;;;;;;;;;;;;0.54;100.00;97069.75;1039334;28;19982;-63
2021/03/02 00:59:10;;;;;;;;;;;;;;;0.32;100.00;97029.13;1039070;28;19917;-68
2021/03/02 00:59:40;;;;;;;;;;;;;;;0.66;100.00;97070.97;1039241;28;19920;-63
2021/03/02 01:00:10;;;;;;;;;;;;;;;0.72;100.00;97068.72;1039391;28;19917;-64
2021/03/02 01:00:41;;;;;;;;;;;;;;;0.79;100.00;97064.47;1043356;28;19924;-64
2021/03/02 01:01:14;;;;;;;;;;;;;;;0.78;100.00;97063.69;1043123;28;19917;-63
2021/03/02 01:01:44;;;;;;;;;;;;;;;0.79;100.00;97062.69;1042780;28;20516;-63
2021/03/02 01:02:14;;;;;;;;;;;;;;;0.79;100.00;97067.06;1043086;28;19917;-62
2021/03/02 01:02:45;;;;;;;;;;;;;;;0.80;100.00;97060.91;1035248;28;19913;-62
2021/03/02 01:03:15;;;;;;;;;;;;;;;0.80;100.00;97059.13;1031803;28;20584;-63
2021/03/02 01:03:45;;;;;;;;;;;;;;;0.88;100.00;97066.06;1035179;28;19913;-63
2021/03/02 01:04:16;;;;;;;;;;;;;;;0.85;100.00;97054.28;1035454;28;19960;-63
2021/03/02 01:04:46;;;;;;;;;;;;;;;0.87;100.00;97064.44;1039456;28;19920;-62
2021/03/02 01:05:16;;;;;;;;;;;;;;;0.88;100.00;97061.69;1034729;28;19920;-62
2021/03/02 01:05:46;;;;;;;;;;;;;;;0.89;100.00;97062.50;1035290;28;19913;-65
2021/03/02 01:06:17;;;;;;;;;;;;;;;0.93;100.00;97059.41;1035228;28;19944;-63
2021/03/02 01:06:47;;;;;;;;;;;;;;;0.93;100.00;97063.75;1037283;28;19913;-63
2021/03/02 01:07:18;;;;;;;;;;;;;;;1.03;100.00;97058.38;1040791;28;20272;-65
2021/03/02 01:07:48;;;;;;;;;;;;;;;0.97;100.00;97059.84;1043288;28;19918;-63
2021/03/02 01:08:18;;;;;;;;;;;;;;;1.11;100.00;97061.75;1043056;28;20275;-63
2021/03/02 01:08:49;;;;;;;;;;;;;;;1.08;100.00;97062.09;1047432;28;19916;-63
2021/03/02 01:09:19;;;;;;;;;;;;;;;1.07;100.00;97063.03;1047354;28;19923;-63
2021/03/02 01:09:49;;;;;;;;;;;;;;;1.07;100.00;97057.88;1047469;28;19923;-63
2021/03/02 01:10:19;;;;;;;;;;;;;;;1.10;100.00;97062.69;1047149;28;19916;-68
2021/03/02 01:10:50;;;;;;;;;;;;;;;1.05;100.00;97054.66;1043780;28;19912;-63
2021/03/02 01:11:20;;;;;;;;;;;;;;;1.08;100.00;97056.91;1043262;28;19966;-64
2021/03/02 01:11:50;;;;;;;;;;;;;;;1.07;100.00;97055.28;1043007;28;19942;-63
2021/03/02 01:12:26;;;;;;;;;;;;;;;1.06;100.00;97051.09;1043215;28;19963;-63
2021/03/02 01:12:56;;;;;;;;;;;;;;;1.04;100.00;97055.66;1035865;28;19913;-63
2021/03/02 01:13:26;;;;;;;;;;;;;;;1.12;100.00;97055.59;1038887;28;19992;-63
2021/03/02 01:13:57;;;;;;;;;;;;;;;1.11;100.00;97055.78;1034952;28;19918;-62
2021/03/02 01:14:28;;;;;;;;;;;;;;;1.11;100.00;97058.38;1035189;28;19968;-63
2021/03/02 01:14:58;;;;;;;;;;;;;;;1.08;100.00;97056.91;1035941;28;19913;-62
2021/03/02 01:15:29;;;;;;;;;;;;;;;1.08;100.00;97059.50;1038172;28;19969;-64
2021/03/02 01:15:59;;;;;;;;;;;;;;;1.14;100.00;97058.81;1040673;28;19948;-62
2021/03/02 01:16:29;;;;;;;;;;;;;;;1.20;100.00;97056.53;1036618;28;19913;-64
2021/03/02 01:16:59;;;;;;;;;;;;;;;1.17;100.00;97055.91;1041833;28;19913;-67
2021/03/02 01:17:30;;;;;;;;;;;;;;;1.14;100.00;97056.25;1044495;28;20402;-63
2021/03/02 01:18:00;;;;;;;;;;;;;;;1.09;100.00;97053.34;1044267;28;19923;-63
2021/03/02 01:18:30;;;;;;;;;;;;;;;1.08;100.00;97051.75;1043142;28;19916;-62
2021/03/02 01:19:01;;;;;;;;;;;;;;;1.08;100.00;97056.91;1031954;28;19909;-63
2021/03/02 01:19:31;;;;;;;;;;;;;;;1.10;100.00;97060.13;1031959;28;19924;-62
2021/03/02 01:20:02;;;;;;;;;;;;;;;1.09;100.00;97057.72;1032113;28;19997;-63
2021/03/02 01:20:32;;;;;;;;;;;;;;;1.08;100.00;97050.94;1036262;28;20015;-63
2021/03/02 01:21:03;;;;;;;;;;;;;;;1.07;100.00;97057.06;1039869;28;19917;-62
2021/03/02 01:21:33;;;;;;;;;;;;;;;1.05;100.00;97059.03;1040176;28;19912;-63
2021/03/02 01:22:04;;;;;;;;;;;;;;;1.08;100.00;97059.50;1035526;28;19925;-63
2021/03/02 01:22:34;;;;;;;;;;;;;;;1.11;100.00;97059.16;1035475;28;19917;-63
2021/03/02 01:23:04;;;;;;;;;;;;;;;1.09;100.00;97053.34;1039947;28;19924;-64
2021/03/02 01:23:34;;;;;;;;;;;;;;;1.09;100.00;97053.34;1035990;28;19918;-63
2021/03/02 01:24:05;;;;;;;;;;;;;;;1.10;100.00;97048.97;1039732;28;20019;-63
2021/03/02 01:24:35;;;;;;;;;;;;;;;1.07;100.00;97054.47;1040168;28;19913;-63
2021/03/02 01:25:09;;;;;;;;;;;;;;;1.06;100.00;97053.69;1040032;28;19986;-64
2021/03/02 01:25:39;;;;;;;;;;;;;;;1.10;100.00;97044.59;1043391;28;20015;-63
2021/03/02 01:26:10;;;;;;;;;;;;;;;1.12;100.00;97052.22;1044200;28;19916;-63
2021/03/02 01:26:40;;;;;;;;;;;;;;;1.12;100.00;97053.00;1040101;28;19913;-62
2021/03/02 01:27:10;;;;;;;;;;;;;;;1.13;100.00;97043.47;1035123;28;19989;-63
2021/03/02 01:27:41;;;;;;;;;;;;;;;1.15;100.00;97047.50;1039349;28;19987;-63
2021/03/02 01:28:11;;;;;;;;;;;;;;;1.12;100.00;97042.66;1039207;28;19921;-62
2021/03/02 01:28:41;;;;;;;;;;;;;;;1.11;100.00;97050.59;1037904;28;19936;-63
2021/03/02 01:29:12;;;;;;;;;;;;;;;1.14;100.00;97042.47;1035151;28;19980;-62
2021/03/02 01:29:42;;;;;;;;;;;;;;;1.13;100.00;97039.09;1038906;28;19944;-63
2021/03/02 01:30:13;;;;;;;;;;;;;;;1.14;100.00;97045.91;1038587;28;20370;-63
2021/03/02 01:30:43;;;;;;;;;;;;;;;1.14;100.00;97045.06;1038564;28;19921;-62
2021/03/02 01:31:13;;;;;;;;;;;;;;;1.12;100.00;97045.25;1039157;28;19939;-62
2021/03/02 01:31:44;;;;;;;;;;;;;;;1.11;100.00;97045.44;1035038;28;20370;-63
2021/03/02 01:32:14;;;;;;;;;;;;;;;1.09;100.00;97043.00;1036636;28;19910;-63
2021/03/02 01:32:44;;;;;;;;;;;;;;;1.10;100.00;97043.81;1038910;28;19940;-63
2021/03/02 01:33:14;;;;;;;;;;;;;;;1.13;100.00;97046.84;1039117;28;19935;-62
2021/03/02 01:33:45;;;;;;;;;;;;;;;1.12;100.00;97041.88;1042398;28;19924;-62
2021/03/02 01:34:15;;;;;;;;;;;;;;;1.14;100.00;97048.47;1035141;28;20318;-63
2021/03/02 01:34:45;;;;;;;;;;;;;;;1.14;100.00;97040.72;1038977;28;20426;-63
2021/03/02 01:35:16;;;;;;;;;;;;;;;1.14;100.00;97051.06;1041825;28;19920;-63
2021/03/02 01:35:46;;;;;;;;;;;;;;;1.11;100.00;97046.25;1038824;28;20011;-63
2021/03/02 01:36:16;;;;;;;;;;;;;;;1.10;100.00;97052.38;1043265;28;19912;-63
2021/03/02 01:36:47;;;;;;;;;;;;;;;1.10;100.00;97046.41;1043099;28;19924;-63
2021/03/02 01:37:17;;;;;;;;;;;;;;;1.05;100.00;97046.91;1037875;28;20512;-64
2021/03/02 01:37:47;;;;;;;;;;;;;;;1.05;100.00;97046.13;1043289;28;19916;-63
2021/03/02 01:38:18;;;;;;;;;;;;;;;1.02;100.00;97043.88;1039094;28;19983;-63
2021/03/02 01:38:48;;;;;;;;;;;;;;;0.99;100.00;97042.41;1039068;28;19923;-63
2021/03/02 01:39:18;;;;;;;;;;;;;;;0.96;100.00;97042.75;1038886;28;19911;-63
2021/03/02 01:39:48;;;;;;;;;;;;;;;0.98;100.00;97052.94;1039008;28;19928;-63
2021/03/02 01:40:19;;;;;;;;;;;;;;;0.93;100.00;97048.25;1039429;28;19913;-63
2021/03/02 01:40:50;;;;;;;;;;;;;;;0.96;100.00;97053.09;1038602;28;20008;-63
2021/03/02 01:41:20;;;;;;;;;;;;;;;1.03;100.00;97043.69;1039076;28;20000;-63
2021/03/02 01:41:53;;;;;;;;;;;;;;;1.04;100.00;97049.66;1039036;28;19948;-63
2021/03/02 01:42:24;;;;;;;;;;;;;;;0.99;100.00;97050.16;1033773;28;19914;-62
2021/03/02 01:42:54;;;;;;;;;;;;;;;0.95;100.00;97046.31;1031177;28;20439;-63
2021/03/02 01:43:24;;;;;;;;;;;;;;;0.92;100.00;97052.63;1035074;28;19924;-63
2021/03/02 01:43:55;;;;;;;;;;;;;;;0.92;100.00;97051.81;1034788;28;19949;-61
2021/03/02 01:44:28;;;;;;;;;;;;;;;0.94;100.00;97050.69;1039162;28;19963;-63
2021/03/02 01:44:58;;;;;;;;;;;;;;;0.92;100.00;97055.22;1034849;28;19917;-63
2021/03/02 01:45:28;;;;;;;;;;;;;;;0.92;100.00;97054.41;1035036;28;19918;-63
2021/03/02 01:45:59;;;;;;;;;;;;;;;0.87;100.00;97054.09;1037805;28;20009;-63
2021/03/02 01:46:29;;;;;;;;;;;;;;;0.83;100.00;97052.81;1039251;28;19979;-63
2021/03/02 01:46:59;;;;;;;;;;;;;;;0.80;100.00;97055.75;1042646;28;19912;-61
2021/03/02 01:47:29;;;;;;;;;;;;;;;0.77;100.00;97056.09;1042527;28;19923;-63
2021/03/02 01:48:00;;;;;;;;;;;;;;;0.75;100.00;97050.28;1039089;28;19924;-62
2021/03/02 01:48:31;;;;;;;;;;;;;;;0.74;100.00;97054.66;1039098;28;20399;-64
2021/03/02 01:49:01;;;;;;;;;;;;;;;0.73;100.00;97049.66;1034641;28;20442;-63
2021/03/02 01:49:32;;;;;;;;;;;;;;;0.78;100.00;97060.28;1035061;28;19972;-62
2021/03/02 01:50:06;;;;;;;;;;;;;;;0.69;100.00;97059.50;1036272;28;19920;-66
2021/03/02 01:50:36;;;;;;;;;;;;;;;0.63;100.00;97058.38;1039060;28;19913;-63
2021/03/02 01:51:07;;;;;;;;;;;;;;;0.59;100.00;97064.06;1034829;28;19913;-63
2021/03/02 01:51:37;;;;;;;;;;;;;;;0.55;100.00;97063.59;1035044;28;20071;-63
2021/03/02 01:52:07;;;;;;;;;;;;;;;0.52;100.00;97060.53;1035090;28;19906;-63
2021/03/02 01:52:38;;;;;;;;;;;;;;;0.51;100.00;97054.56;1028555;28;19936;-63
2021/03/02 01:53:08;;;;;;;;;;;;;;;0.46;100.00;97057.63;1030895;28;20406;-63
2021/03/02 01:53:38;;;;;;;;;;;;;;;0.43;100.00;97057.16;1027596;28;20356;-62
2021/03/02 01:54:09;;;;;;;;;;;;;;;0.41;100.00;97059.94;1031317;28;19921;-63
2021/03/02 01:54:39;;;;;;;;;;;;;;;0.40;100.00;97057.50;1035101;28;19956;-66
2021/03/02 01:55:10;;;;;;;;;;;;;;;0.36;100.00;97061.38;1034827;28;19920;-63
2021/03/02 01:55:40;;;;;;;;;;;;;;;0.34;100.00;97055.59;1030727;28;20397;-62
2021/03/02 01:56:10;;;;;;;;;;;;;;;0.40;100.00;97058.31;1033829;28;19917;-63
2021/03/02 01:56:41;;;;;;;;;;;;;;;0.42;100.00;97060.72;1034778;28;20487;-64
2021/03/02 01:57:11;;;;;;;;;;;;;;;0.45;100.00;97057.81;1038596;28;20410;-62
2021/03/02 01:57:41;;;;;;;;;;;;;;;0.45;100.00;97050.88;1042705;28;19917;-67
2021/03/02 01:58:12;;;;;;;;;;;;;;;0.46;100.00;97055.06;1043155;28;19917;-63
2021/03/02 01:58:42;;;;;;;;;;;;;;;0.43;100.00;97054.59;1039413;28;19959;-63
2021/03/02 01:59:12;;;;;;;;;;;;;;;0.41;100.00;97053.97;1039159;28;19913;-64
2021/03/02 01:59:43;;;;;;;;;;;;;;;0.40;100.00;97050.59;1038871;28;19924;-62
2021/03/02 02:00:27;;;;;;;;;;;;;;;0.39;100.00;97055.91;1040494;28;19917;-64
2021/03/02 02:01:01;;;;;;;;;;;;;;;0.42;100.00;97056.38;1041135;28;19977;-63
2021/03/02 02:01:32;;;;;;;;;;;;;;;0.40;100.00;97053.16;1036430;28;20116;-64
2021/03/02 02:02:02;;;;;;;;;;;;;;;0.36;100.00;97054.44;1039405;28;20421;-64
2021/03/02 02:02:37;;;;;;;;;;;;;;;0.34;100.00;97058.19;1032682;28;19921;-63
2021/03/02 02:03:11;;;;;;;;;;;;;;;0.37;100.00;97068.16;1029574;28;19914;-64
2021/03/02 02:03:42;;;;;;;;;;;;;;;0.33;100.00;97052.19;1034730;28;19960;-63
2021/03/02 02:04:12;;;;;;;;;;;;;;;0.37;100.00;97063.81;1036286;28;20518;-63
2021/03/02 02:04:44;;;;;;;;;;;;;;;0.32;100.00;97060.91;1039148;28;19913;-63
2021/03/02 02:05:15;;;;;;;;;;;;;;;0.28;100.00;97051.09;1038629;28;20399;-63
2021/03/02 02:06:02;;;;;;;;;;;;;;;0.26;100.00;97060.75;1034926;28;19920;-63
2021/03/02 02:06:35;;;;;;;;;;;;;;;0.28;100.00;97058.84;1034305;28;19914;-61
2021/03/02 02:07:09;;;;;;;;;;;;;;;0.24;100.00;97066.09;1037730;28;19985;-63
2021/03/02 02:07:43;;;;;;;;;;;;;;;0.22;100.00;97063.66;1037833;28;19917;-63
2021/03/02 02:08:14;;;;;;;;;;;;;;;0.17;100.00;97058.22;1030486;28;19952;-64
2021/03/02 02:09:02;;;;;;;;;;;;;;;0.14;100.00;97063.69;1026905;28;20316;-63
2021/03/02 02:09:51;;;;;;;;;;;;;;;0.11;100.00;97068.38;1032725;28;19913;-63
2021/03/02 02:10:24;;;;;;;;;;;;;;;0.20;100.00;97059.63;1038957;28;19956;-63
2021/03/02 02:10:56;;;;;;;;;;;;;;;0.17;100.00;97060.78;1039072;28;19909;-62
2021/03/02 02:11:27;;;;;;;;;;;;;;;0.15;100.00;97067.88;1039042;28;19909;-63
2021/03/02 02:11:59;;;;;;;;;;;;;;;0.16;100.00;97061.75;1038162;28;19909;-63
2021/03/02 02:12:33;;;;;;;;;;;;;;;0.10;100.00;97062.41;1039038;28;20474;-62
2021/03/02 02:13:04;;;;;;;;;;;;;;;0.07;100.00;97061.91;1040060;28;20302;-63
2021/03/02 02:13:36;;;;;;;;;;;;;;;0.04;100.00;97063.06;1040827;28;19956;-63
2021/03/02 02:14:09;;;;;;;;;;;;;;;0.00;100.00;97066.94;1043122;28;19956;-63
2021/03/02 02:14:42;;;;;;;;;;;;;;;-0.02;100.00;97066.28;1043145;28;20011;-63
2021/03/02 02:15:12;;;;;;;;;;;;;;;-0.05;100.00;97070.00;1039009;28;19917;-62
2021/03/02 02:15:43;;;;;;;;;;;;;;;-0.04;100.00;97066.44;1035570;28;19917;-63
2021/03/02 02:16:13;;;;;;;;;;;;;;;-0.04;100.00;97070.81;1031700;28;19925;-65
2021/03/02 02:16:43;;;;;;;;;;;;;;;-0.05;100.00;97064.84;1035252;28;19913;-62
2021/03/02 02:17:22;;;;;;;;;;;;;;;-0.04;100.00;97060.47;1034891;28;19920;-61
2021/03/02 02:17:54;;;;;;;;;;;;;;;-0.05;100.00;97069.19;1039448;28;19913;-63
2021/03/02 02:18:27;;;;;;;;;;;;;;;-0.03;100.00;97067.28;1033519;28;19979;-62
2021/03/02 02:18:58;;;;;;;;;;;;;;;-0.06;100.00;97072.75;1030439;28;20677;-62
2021/03/02 02:19:31;;;;;;;;;;;;;;;-0.02;100.00;97064.53;1030835;28;19961;-62
2021/03/02 02:20:05;;;;;;;;;;;;;;;-0.04;100.00;97066.44;1031664;28;19914;-62
2021/03/02 02:20:41;;;;;;;;;;;;;;;-0.06;100.00;97062.44;1035037;28;19920;-63
2021/03/02 02:21:18;;;;;;;;;;;;;;;-0.09;100.00;97062.75;1035063;28;19913;-62
2021/03/02 02:21:57;;;;;;;;;;;;;;;-0.11;100.00;97062.09;1034822;28;19959;-63
2021/03/02 02:22:38;;;;;;;;;;;;;;;-0.14;100.00;97062.44;1038461;28;20267;-62
2021/03/02 02:23:27;;;;;;;;;;;;;;;-0.16;100.00;97066.97;1042709;28;19992;-63
2021/03/02 02:24:18;;;;;;;;;;;;;;;-0.17;100.00;97060.16;1036792;28;20442;-63
2021/03/02 02:25:03;;;;;;;;;;;;;;;-0.17;100.00;97065.31;1034893;28;20007;-62
2021/03/02 02:25:53;;;;;;;;;;;;;;;-0.20;100.00;97065.66;1035904;28;19913;-62
2021/03/02 02:26:35;;;;;;;;;;;;;;;-0.24;100.00;97060.81;1039599;28;19920;-63
2021/03/02 02:27:05;;;;;;;;;;;;;;;-0.23;100.00;97061.63;1038407;28;19928;-63
2021/03/02 02:27:35;;;;;;;;;;;;;;;-0.26;100.00;97057.59;1034660;28;19931;-63
2021/03/02 02:28:06;;;;;;;;;;;;;;;-0.26;100.00;97060.19;1030899;28;19914;-62
2021/03/02 02:28:36;;;;;;;;;;;;;;;-0.27;100.00;97057.75;1026790;28;20404;-63
2021/03/02 02:29:07;;;;;;;;;;;;;;;-0.29;100.00;97051.97;1027480;28;19914;-63
2021/03/02 02:29:37;;;;;;;;;;;;;;;-0.31;100.00;97057.28;1030762;28;20529;-65
2021/03/02 02:30:08;;;;;;;;;;;;;;;-0.28;100.00;97053.56;1031015;28;19960;-62
2021/03/02 02:30:38;;;;;;;;;;;;;;;-0.27;100.00;97061.16;1030475;28;19913;-63
2021/03/02 02:31:08;;;;;;;;;;;;;;;-0.27;100.00;97053.44;1030878;28;19909;-63
2021/03/02 02:31:39;;;;;;;;;;;;;;;-0.29;100.00;97052.75;1030863;28;19918;-62
2021/03/02 02:32:09;;;;;;;;;;;;;;;-0.24;100.00;97060.00;1034949;28;20394;-63
2021/03/02 02:32:40;;;;;;;;;;;;;;;-0.25;100.00;97053.25;1038848;28;19963;-62
2021/03/02 02:33:11;;;;;;;;;;;;;;;-0.27;100.00;97060.31;1034987;28;19914;-64
2021/03/02 02:33:41;;;;;;;;;;;;;;;-0.29;100.00;97062.28;1038990;28;20371;-63
2021/03/02 02:34:12;;;;;;;;;;;;;;;-0.29;100.00;97057.91;1038380;28;20561;-63
2021/03/02 02:34:43;;;;;;;;;;;;;;;-0.31;100.00;97057.28;1035259;28;19909;-64
2021/03/02 02:35:13;;;;;;;;;;;;;;;-0.34;100.00;97061.94;1034630;28;19984;-64
2021/03/02 02:35:44;;;;;;;;;;;;;;;-0.37;100.00;97063.09;1030659;28;19988;-63
2021/03/02 02:36:15;;;;;;;;;;;;;;;-0.42;100.00;97056.78;1030719;28;19913;-62
2021/03/02 02:36:49;;;;;;;;;;;;;;;-0.45;100.00;97059.69;1034953;28;19955;-62
2021/03/02 02:37:19;;;;;;;;;;;;;;;-0.48;100.00;97058.22;1028651;28;20383;-62
2021/03/02 02:37:49;;;;;;;;;;;;;;;-0.51;100.00;97056.78;1030736;28;19913;-63
2021/03/02 02:38:20;;;;;;;;;;;;;;;-0.54;100.00;97064.03;1031403;28;19920;-65
2021/03/02 02:38:51;;;;;;;;;;;;;;;-0.55;100.00;97059.84;1034765;28;19913;-63
2021/03/02 02:39:21;;;;;;;;;;;;;;;-0.57;100.00;97059.19;1035861;28;19918;-62
2021/03/02 02:39:51;;;;;;;;;;;;;;;-0.61;100.00;97057.91;1026785;28;19918;-63
2021/03/02 02:40:22;;;;;;;;;;;;;;;-0.64;100.00;97058.22;1022871;28;19921;-63
2021/03/02 02:40:52;;;;;;;;;;;;;;;-0.66;100.00;97070.47;1030769;28;19917;-63
2021/03/02 02:41:22;;;;;;;;;;;;;;;-0.72;100.00;97059.81;1038923;28;19913;-63
2021/03/02 02:41:53;;;;;;;;;;;;;;;-0.74;100.00;97066.91;1035560;28;19947;-62
2021/03/02 02:42:23;;;;;;;;;;;;;;;-0.75;100.00;97065.28;1039568;28;20310;-63
2021/03/02 02:42:54;;;;;;;;;;;;;;;-0.76;100.00;97061.09;1035541;28;20386;-64
2021/03/02 02:43:25;;;;;;;;;;;;;;;-0.76;100.00;97065.47;1039704;28;20080;-63